sensor_id;sensor_type;location;lat;lon;timestamp;P1;durP1;ratioP1;P2;durP2;ratioP2
75289;SDS011;63883;48.996;20.804;2023-05-02T00:00:35;3.83;;;2.45;;
75289;SDS011;63883;48.996;20.804;2023-05-02T00:03:13;3.75;;;2.25;;
75289;SDS011;63883;48.996;20.804;2023-05-02T00:05:38;4.40;;;2.65;;
75289;SDS011;63883;48.996;20.804;2023-05-02T00:08:05;3.35;;;2.40;;
75289;SDS011;63883;48.996;20.804;2023-05-02T00:10:31;4.13;;;2.38;;
75289;SDS011;63883;48.996;20.804;2023-05-02T00:12:56;3.75;;;2.80;;
75289;SDS011;63883;48.996;20.804;2023-05-02T00:15:22;4.75;;;2.95;;
75289;SDS011;63883;48.996;20.804;2023-05-02T00:17:48;3.65;;;2.60;;
75289;SDS011;63883;48.996;20.804;2023-05-02T00:20:13;4.70;;;2.40;;
75289;SDS011;63883;48.996;20.804;2023-05-02T00:22:39;5.57;;;2.50;;
75289;SDS011;63883;48.996;20.804;2023-05-02T00:25:05;3.63;;;2.35;;
75289;SDS011;63883;48.996;20.804;2023-05-02T00:27:31;3.92;;;2.47;;
75289;SDS011;63883;48.996;20.804;2023-05-02T00:29:57;3.65;;;2.42;;
75289;SDS011;63883;48.996;20.804;2023-05-02T00:32:24;3.95;;;2.88;;
75289;SDS011;63883;48.996;20.804;2023-05-02T00:34:51;3.40;;;2.47;;
75289;SDS011;63883;48.996;20.804;2023-05-02T00:37:17;4.63;;;2.50;;
75289;SDS011;63883;48.996;20.804;2023-05-02T00:39:43;3.72;;;2.55;;
75289;SDS011;63883;48.996;20.804;2023-05-02T00:42:09;4.53;;;2.50;;
75289;SDS011;63883;48.996;20.804;2023-05-02T00:44:35;3.75;;;2.40;;
75289;SDS011;63883;48.996;20.804;2023-05-02T00:47:01;6.15;;;2.60;;
75289;SDS011;63883;48.996;20.804;2023-05-02T00:49:27;4.05;;;2.58;;
75289;SDS011;63883;48.996;20.804;2023-05-02T00:51:53;3.58;;;2.53;;
75289;SDS011;63883;48.996;20.804;2023-05-02T00:54:19;2.92;;;2.22;;
75289;SDS011;63883;48.996;20.804;2023-05-02T00:56:45;4.57;;;2.40;;
75289;SDS011;63883;48.996;20.804;2023-05-02T00:59:11;4.82;;;2.40;;
75289;SDS011;63883;48.996;20.804;2023-05-02T01:10:10;3.33;;;2.22;;
75289;SDS011;63883;48.996;20.804;2023-05-02T01:12:58;3.83;;;2.22;;
75289;SDS011;63883;48.996;20.804;2023-05-02T01:15:32;3.42;;;2.30;;
75289;SDS011;63883;48.996;20.804;2023-05-02T01:18:01;3.58;;;1.90;;
75289;SDS011;63883;48.996;20.804;2023-05-02T01:20:29;4.88;;;2.50;;
75289;SDS011;63883;48.996;20.804;2023-05-02T01:23:02;3.63;;;2.60;;
75289;SDS011;63883;48.996;20.804;2023-05-02T01:31:02;3.40;;;2.40;;
75289;SDS011;63883;48.996;20.804;2023-05-02T01:33:30;3.45;;;2.30;;
75289;SDS011;63883;48.996;20.804;2023-05-02T01:35:59;3.80;;;2.70;;
75289;SDS011;63883;48.996;20.804;2023-05-02T01:38:26;3.47;;;2.35;;
75289;SDS011;63883;48.996;20.804;2023-05-02T01:40:53;2.72;;;2.20;;
75289;SDS011;63883;48.996;20.804;2023-05-02T01:43:22;4.10;;;2.60;;
75289;SDS011;63883;48.996;20.804;2023-05-02T01:45:50;4.47;;;2.70;;
75289;SDS011;63883;48.996;20.804;2023-05-02T01:48:17;3.63;;;2.55;;
75289;SDS011;63883;48.996;20.804;2023-05-02T01:50:43;3.35;;;2.42;;
75289;SDS011;63883;48.996;20.804;2023-05-02T01:53:12;4.28;;;2.80;;
75289;SDS011;63883;48.996;20.804;2023-05-02T01:55:43;4.55;;;2.58;;
75289;SDS011;63883;48.996;20.804;2023-05-02T01:58:10;4.97;;;2.78;;
75289;SDS011;63883;48.996;20.804;2023-05-02T02:00:38;4.57;;;2.70;;
75289;SDS011;63883;48.996;20.804;2023-05-02T02:03:06;3.40;;;2.50;;
75289;SDS011;63883;48.996;20.804;2023-05-02T02:05:33;3.00;;;2.30;;
75289;SDS011;63883;48.996;20.804;2023-05-02T02:08:00;4.72;;;2.35;;
75289;SDS011;63883;48.996;20.804;2023-05-02T02:10:26;5.05;;;2.50;;
75289;SDS011;63883;48.996;20.804;2023-05-02T02:13:00;2.90;;;2.20;;
75289;SDS011;63883;48.996;20.804;2023-05-02T02:15:33;3.38;;;2.60;;
75289;SDS011;63883;48.996;20.804;2023-05-02T02:18:12;5.18;;;2.63;;
75289;SDS011;63883;48.996;20.804;2023-05-02T02:20:43;4.22;;;2.47;;
75289;SDS011;63883;48.996;20.804;2023-05-02T02:23:10;4.05;;;2.20;;
75289;SDS011;63883;48.996;20.804;2023-05-02T02:25:39;3.42;;;2.50;;
75289;SDS011;63883;48.996;20.804;2023-05-02T02:28:05;3.67;;;2.50;;
75289;SDS011;63883;48.996;20.804;2023-05-02T02:30:32;4.60;;;2.55;;
75289;SDS011;63883;48.996;20.804;2023-05-02T02:32:57;3.28;;;2.33;;
75289;SDS011;63883;48.996;20.804;2023-05-02T02:35:24;3.58;;;2.60;;
75289;SDS011;63883;48.996;20.804;2023-05-02T02:37:58;4.10;;;2.55;;
75289;SDS011;63883;48.996;20.804;2023-05-02T02:40:36;6.18;;;3.22;;
75289;SDS011;63883;48.996;20.804;2023-05-02T02:51:12;10.95;;;5.13;;
75289;SDS011;63883;48.996;20.804;2023-05-02T02:56:40;8.80;;;4.88;;
75289;SDS011;63883;48.996;20.804;2023-05-02T02:59:13;9.20;;;4.53;;
75289;SDS011;63883;48.996;20.804;2023-05-02T03:01:55;9.05;;;4.93;;
75289;SDS011;63883;48.996;20.804;2023-05-02T03:04:27;8.45;;;4.07;;
75289;SDS011;63883;48.996;20.804;2023-05-02T03:06:56;7.43;;;4.30;;
75289;SDS011;63883;48.996;20.804;2023-05-02T03:09:22;8.45;;;4.43;;
75289;SDS011;63883;48.996;20.804;2023-05-02T03:11:47;7.72;;;3.55;;
75289;SDS011;63883;48.996;20.804;2023-05-02T03:14:13;7.63;;;3.95;;
75289;SDS011;63883;48.996;20.804;2023-05-02T03:16:39;8.20;;;4.43;;
75289;SDS011;63883;48.996;20.804;2023-05-02T03:19:05;7.88;;;3.85;;
75289;SDS011;63883;48.996;20.804;2023-05-02T03:21:32;8.45;;;4.50;;
75289;SDS011;63883;48.996;20.804;2023-05-02T03:24:00;9.13;;;4.90;;
75289;SDS011;63883;48.996;20.804;2023-05-02T03:26:26;6.90;;;4.28;;
75289;SDS011;63883;48.996;20.804;2023-05-02T03:28:53;8.90;;;4.80;;
75289;SDS011;63883;48.996;20.804;2023-05-02T03:31:19;8.32;;;4.25;;
75289;SDS011;63883;48.996;20.804;2023-05-02T03:33:46;7.50;;;4.63;;
75289;SDS011;63883;48.996;20.804;2023-05-02T03:36:12;7.28;;;4.55;;
75289;SDS011;63883;48.996;20.804;2023-05-02T03:38:38;7.13;;;4.18;;
75289;SDS011;63883;48.996;20.804;2023-05-02T03:41:04;6.30;;;3.63;;
75289;SDS011;63883;48.996;20.804;2023-05-02T03:43:30;7.85;;;3.45;;
75289;SDS011;63883;48.996;20.804;2023-05-02T03:45:57;6.60;;;3.65;;
75289;SDS011;63883;48.996;20.804;2023-05-02T03:48:28;4.90;;;3.42;;
75289;SDS011;63883;48.996;20.804;2023-05-02T03:50:53;6.18;;;3.67;;
75289;SDS011;63883;48.996;20.804;2023-05-02T03:53:19;5.88;;;3.13;;
75289;SDS011;63883;48.996;20.804;2023-05-02T03:55:45;6.32;;;3.65;;
75289;SDS011;63883;48.996;20.804;2023-05-02T03:58:11;8.05;;;3.65;;
75289;SDS011;63883;48.996;20.804;2023-05-02T04:00:36;6.57;;;3.70;;
75289;SDS011;63883;48.996;20.804;2023-05-02T04:03:03;5.30;;;3.50;;
75289;SDS011;63883;48.996;20.804;2023-05-02T04:05:28;5.63;;;3.88;;
75289;SDS011;63883;48.996;20.804;2023-05-02T04:07:55;5.88;;;3.40;;
75289;SDS011;63883;48.996;20.804;2023-05-02T04:10:21;6.95;;;3.50;;
75289;SDS011;63883;48.996;20.804;2023-05-02T04:12:47;5.70;;;3.40;;
75289;SDS011;63883;48.996;20.804;2023-05-02T04:15:13;7.45;;;3.13;;
75289;SDS011;63883;48.996;20.804;2023-05-02T04:17:39;4.72;;;2.90;;
75289;SDS011;63883;48.996;20.804;2023-05-02T04:20:05;5.35;;;2.85;;
75289;SDS011;63883;48.996;20.804;2023-05-02T04:22:31;4.85;;;2.80;;
75289;SDS011;63883;48.996;20.804;2023-05-02T04:24:57;4.78;;;3.00;;
75289;SDS011;63883;48.996;20.804;2023-05-02T04:27:23;4.53;;;2.90;;
75289;SDS011;63883;48.996;20.804;2023-05-02T04:29:49;4.13;;;3.10;;
75289;SDS011;63883;48.996;20.804;2023-05-02T04:32:16;6.63;;;3.42;;
75289;SDS011;63883;48.996;20.804;2023-05-02T04:34:42;7.00;;;3.60;;
75289;SDS011;63883;48.996;20.804;2023-05-02T04:37:08;7.03;;;3.75;;
75289;SDS011;63883;48.996;20.804;2023-05-02T04:39:33;6.18;;;3.45;;
75289;SDS011;63883;48.996;20.804;2023-05-02T04:41:59;6.13;;;3.50;;
75289;SDS011;63883;48.996;20.804;2023-05-02T04:44:25;6.97;;;3.45;;
75289;SDS011;63883;48.996;20.804;2023-05-02T04:46:51;5.82;;;4.00;;
75289;SDS011;63883;48.996;20.804;2023-05-02T04:49:17;9.18;;;4.18;;
75289;SDS011;63883;48.996;20.804;2023-05-02T04:51:44;6.85;;;3.85;;
75289;SDS011;63883;48.996;20.804;2023-05-02T04:54:09;7.05;;;3.80;;
75289;SDS011;63883;48.996;20.804;2023-05-02T04:56:37;6.80;;;3.90;;
75289;SDS011;63883;48.996;20.804;2023-05-02T04:59:02;6.90;;;3.83;;
75289;SDS011;63883;48.996;20.804;2023-05-02T05:01:28;7.07;;;4.20;;
75289;SDS011;63883;48.996;20.804;2023-05-02T05:03:54;6.15;;;3.80;;
75289;SDS011;63883;48.996;20.804;2023-05-02T05:06:20;5.95;;;4.03;;
75289;SDS011;63883;48.996;20.804;2023-05-02T05:08:46;6.65;;;4.30;;
75289;SDS011;63883;48.996;20.804;2023-05-02T05:11:12;7.88;;;4.38;;
75289;SDS011;63883;48.996;20.804;2023-05-02T05:13:40;7.45;;;4.20;;
75289;SDS011;63883;48.996;20.804;2023-05-02T05:16:06;6.85;;;4.00;;
75289;SDS011;63883;48.996;20.804;2023-05-02T05:18:32;8.68;;;4.10;;
75289;SDS011;63883;48.996;20.804;2023-05-02T05:21:08;7.50;;;4.18;;
75289;SDS011;63883;48.996;20.804;2023-05-02T05:23:34;6.80;;;4.18;;
75289;SDS011;63883;48.996;20.804;2023-05-02T05:26:10;6.80;;;3.90;;
75289;SDS011;63883;48.996;20.804;2023-05-02T05:28:37;8.27;;;3.90;;
75289;SDS011;63883;48.996;20.804;2023-05-02T05:31:04;5.60;;;3.70;;
75289;SDS011;63883;48.996;20.804;2023-05-02T05:33:30;8.23;;;4.68;;
75289;SDS011;63883;48.996;20.804;2023-05-02T05:36:01;8.20;;;4.07;;
75289;SDS011;63883;48.996;20.804;2023-05-02T05:38:31;8.55;;;4.30;;
75289;SDS011;63883;48.996;20.804;2023-05-02T05:40:57;9.05;;;4.05;;
75289;SDS011;63883;48.996;20.804;2023-05-02T05:43:22;5.88;;;3.90;;
75289;SDS011;63883;48.996;20.804;2023-05-02T05:45:51;5.50;;;3.63;;
75289;SDS011;63883;48.996;20.804;2023-05-02T05:48:17;7.85;;;3.60;;
75289;SDS011;63883;48.996;20.804;2023-05-02T05:50:43;6.05;;;3.72;;
75289;SDS011;63883;48.996;20.804;2023-05-02T05:53:09;7.70;;;4.10;;
75289;SDS011;63883;48.996;20.804;2023-05-02T05:55:35;6.82;;;3.88;;
75289;SDS011;63883;48.996;20.804;2023-05-02T05:58:02;6.75;;;3.85;;
75289;SDS011;63883;48.996;20.804;2023-05-02T06:00:28;6.93;;;4.00;;
75289;SDS011;63883;48.996;20.804;2023-05-02T06:02:54;6.15;;;4.10;;
75289;SDS011;63883;48.996;20.804;2023-05-02T06:05:19;9.85;;;4.07;;
75289;SDS011;63883;48.996;20.804;2023-05-02T06:07:45;6.55;;;3.85;;
75289;SDS011;63883;48.996;20.804;2023-05-02T06:10:11;7.88;;;3.72;;
75289;SDS011;63883;48.996;20.804;2023-05-02T06:12:37;7.32;;;3.75;;
75289;SDS011;63883;48.996;20.804;2023-05-02T06:15:03;5.35;;;3.67;;
75289;SDS011;63883;48.996;20.804;2023-05-02T06:17:28;5.28;;;3.40;;
75289;SDS011;63883;48.996;20.804;2023-05-02T06:19:54;6.38;;;3.53;;
75289;SDS011;63883;48.996;20.804;2023-05-02T06:22:20;4.47;;;3.50;;
75289;SDS011;63883;48.996;20.804;2023-05-02T06:24:46;5.15;;;3.50;;
75289;SDS011;63883;48.996;20.804;2023-05-02T06:27:11;10.00;;;5.00;;
75289;SDS011;63883;48.996;20.804;2023-05-02T06:29:37;13.07;;;5.82;;
75289;SDS011;63883;48.996;20.804;2023-05-02T06:32:02;21.90;;;9.23;;
75289;SDS011;63883;48.996;20.804;2023-05-02T06:34:32;14.02;;;6.47;;
75289;SDS011;63883;48.996;20.804;2023-05-02T06:36:58;10.88;;;5.30;;
75289;SDS011;63883;48.996;20.804;2023-05-02T06:39:24;22.05;;;11.38;;
75289;SDS011;63883;48.996;20.804;2023-05-02T06:41:49;5.65;;;3.50;;
75289;SDS011;63883;48.996;20.804;2023-05-02T06:44:15;4.88;;;3.15;;
75289;SDS011;63883;48.996;20.804;2023-05-02T06:46:41;4.45;;;3.20;;
75289;SDS011;63883;48.996;20.804;2023-05-02T06:49:07;6.25;;;3.50;;
75289;SDS011;63883;48.996;20.804;2023-05-02T06:51:33;7.88;;;3.20;;
75289;SDS011;63883;48.996;20.804;2023-05-02T06:53:59;5.68;;;3.70;;
75289;SDS011;63883;48.996;20.804;2023-05-02T06:56:24;5.55;;;3.83;;
75289;SDS011;63883;48.996;20.804;2023-05-02T06:58:51;9.13;;;3.78;;
75289;SDS011;63883;48.996;20.804;2023-05-02T07:01:16;7.40;;;3.97;;
75289;SDS011;63883;48.996;20.804;2023-05-02T07:03:43;5.55;;;3.47;;
75289;SDS011;63883;48.996;20.804;2023-05-02T07:06:10;5.15;;;3.15;;
75289;SDS011;63883;48.996;20.804;2023-05-02T07:08:36;4.13;;;3.00;;
75289;SDS011;63883;48.996;20.804;2023-05-02T07:11:02;4.45;;;3.25;;
75289;SDS011;63883;48.996;20.804;2023-05-02T07:13:28;4.72;;;2.90;;
75289;SDS011;63883;48.996;20.804;2023-05-02T07:15:54;5.28;;;3.17;;
75289;SDS011;63883;48.996;20.804;2023-05-02T07:18:21;5.25;;;3.15;;
75289;SDS011;63883;48.996;20.804;2023-05-02T07:20:46;5.65;;;3.00;;
75289;SDS011;63883;48.996;20.804;2023-05-02T07:23:12;5.28;;;3.22;;
75289;SDS011;63883;48.996;20.804;2023-05-02T07:25:38;5.88;;;3.30;;
75289;SDS011;63883;48.996;20.804;2023-05-02T07:28:04;6.40;;;3.70;;
75289;SDS011;63883;48.996;20.804;2023-05-02T07:30:30;5.03;;;3.22;;
75289;SDS011;63883;48.996;20.804;2023-05-02T07:32:56;5.88;;;3.63;;
75289;SDS011;63883;48.996;20.804;2023-05-02T07:35:22;5.32;;;3.17;;
75289;SDS011;63883;48.996;20.804;2023-05-02T07:37:48;6.18;;;3.80;;
75289;SDS011;63883;48.996;20.804;2023-05-02T07:40:13;5.20;;;3.40;;
75289;SDS011;63883;48.996;20.804;2023-05-02T07:42:39;4.93;;;3.42;;
75289;SDS011;63883;48.996;20.804;2023-05-02T07:45:06;5.88;;;3.13;;
75289;SDS011;63883;48.996;20.804;2023-05-02T07:47:32;4.60;;;3.20;;
75289;SDS011;63883;48.996;20.804;2023-05-02T07:49:58;4.55;;;3.08;;
75289;SDS011;63883;48.996;20.804;2023-05-02T07:52:24;4.15;;;3.22;;
75289;SDS011;63883;48.996;20.804;2023-05-02T07:54:50;5.57;;;3.38;;
75289;SDS011;63883;48.996;20.804;2023-05-02T07:57:16;5.22;;;3.30;;
75289;SDS011;63883;48.996;20.804;2023-05-02T07:59:43;5.18;;;3.35;;
75289;SDS011;63883;48.996;20.804;2023-05-02T08:02:09;5.78;;;3.40;;
75289;SDS011;63883;48.996;20.804;2023-05-02T08:07:02;4.97;;;3.38;;
75289;SDS011;63883;48.996;20.804;2023-05-02T08:09:28;5.57;;;3.35;;
75289;SDS011;63883;48.996;20.804;2023-05-02T08:11:54;6.70;;;3.40;;
75289;SDS011;63883;48.996;20.804;2023-05-02T08:14:20;5.10;;;3.38;;
75289;SDS011;63883;48.996;20.804;2023-05-02T08:16:46;4.63;;;3.30;;
75289;SDS011;63883;48.996;20.804;2023-05-02T08:19:12;4.53;;;3.10;;
75289;SDS011;63883;48.996;20.804;2023-05-02T08:21:38;4.63;;;3.30;;
75289;SDS011;63883;48.996;20.804;2023-05-02T08:24:03;5.53;;;3.30;;
75289;SDS011;63883;48.996;20.804;2023-05-02T08:26:30;3.88;;;3.20;;
75289;SDS011;63883;48.996;20.804;2023-05-02T08:28:55;4.43;;;3.40;;
75289;SDS011;63883;48.996;20.804;2023-05-02T08:31:21;5.00;;;3.40;;
75289;SDS011;63883;48.996;20.804;2023-05-02T08:33:47;4.57;;;3.17;;
75289;SDS011;63883;48.996;20.804;2023-05-02T08:36:13;4.78;;;3.22;;
75289;SDS011;63883;48.996;20.804;2023-05-02T08:38:40;5.72;;;3.30;;
75289;SDS011;63883;48.996;20.804;2023-05-02T08:41:13;4.95;;;3.17;;
75289;SDS011;63883;48.996;20.804;2023-05-02T08:43:41;6.05;;;3.40;;
75289;SDS011;63883;48.996;20.804;2023-05-02T08:46:10;4.72;;;3.15;;
75289;SDS011;63883;48.996;20.804;2023-05-02T08:48:37;6.28;;;3.13;;
75289;SDS011;63883;48.996;20.804;2023-05-02T08:51:09;5.90;;;3.53;;
75289;SDS011;63883;48.996;20.804;2023-05-02T08:53:36;4.80;;;3.42;;
75289;SDS011;63883;48.996;20.804;2023-05-02T08:56:03;5.68;;;3.38;;
75289;SDS011;63883;48.996;20.804;2023-05-02T08:58:31;6.90;;;3.80;;
75289;SDS011;63883;48.996;20.804;2023-05-02T09:00:59;6.00;;;3.78;;
75289;SDS011;63883;48.996;20.804;2023-05-02T09:03:30;4.97;;;3.60;;
75289;SDS011;63883;48.996;20.804;2023-05-02T09:06:10;7.78;;;3.53;;
75289;SDS011;63883;48.996;20.804;2023-05-02T09:08:38;4.32;;;3.42;;
75289;SDS011;63883;48.996;20.804;2023-05-02T09:11:05;5.38;;;3.50;;
75289;SDS011;63883;48.996;20.804;2023-05-02T09:13:36;5.85;;;3.05;;
75289;SDS011;63883;48.996;20.804;2023-05-02T09:16:07;4.47;;;3.25;;
75289;SDS011;63883;48.996;20.804;2023-05-02T09:18:37;6.10;;;3.20;;
75289;SDS011;63883;48.996;20.804;2023-05-02T09:21:23;3.35;;;3.00;;
75289;SDS011;63883;48.996;20.804;2023-05-02T09:24:01;5.35;;;3.33;;
75289;SDS011;63883;48.996;20.804;2023-05-02T09:26:28;3.25;;;2.75;;
75289;SDS011;63883;48.996;20.804;2023-05-02T09:28:57;3.58;;;2.97;;
75289;SDS011;63883;48.996;20.804;2023-05-02T09:31:30;5.40;;;3.10;;
75289;SDS011;63883;48.996;20.804;2023-05-02T09:34:12;3.95;;;2.88;;
75289;SDS011;63883;48.996;20.804;2023-05-02T09:36:41;3.25;;;2.80;;
75289;SDS011;63883;48.996;20.804;2023-05-02T09:39:09;3.15;;;2.55;;
75289;SDS011;63883;48.996;20.804;2023-05-02T09:41:41;4.43;;;2.60;;
75289;SDS011;63883;48.996;20.804;2023-05-02T09:44:15;4.35;;;2.67;;
75289;SDS011;63883;48.996;20.804;2023-05-02T09:46:49;6.60;;;2.70;;
75289;SDS011;63883;48.996;20.804;2023-05-02T09:52:16;3.15;;;2.60;;
75289;SDS011;63883;48.996;20.804;2023-05-02T09:54:42;2.72;;;2.53;;
75289;SDS011;63883;48.996;20.804;2023-05-02T09:57:10;3.53;;;2.53;;
75289;SDS011;63883;48.996;20.804;2023-05-02T09:59:37;2.70;;;2.50;;
75289;SDS011;63883;48.996;20.804;2023-05-02T10:02:04;2.95;;;2.60;;
75289;SDS011;63883;48.996;20.804;2023-05-02T10:04:32;2.63;;;2.42;;
75289;SDS011;63883;48.996;20.804;2023-05-02T10:06:58;2.78;;;2.50;;
75289;SDS011;63883;48.996;20.804;2023-05-02T10:09:26;3.38;;;2.72;;
75289;SDS011;63883;48.996;20.804;2023-05-02T10:11:53;3.28;;;2.58;;
75289;SDS011;63883;48.996;20.804;2023-05-02T10:14:21;3.03;;;2.60;;
75289;SDS011;63883;48.996;20.804;2023-05-02T10:16:57;6.05;;;2.42;;
75289;SDS011;63883;48.996;20.804;2023-05-02T10:20:10;2.85;;;2.58;;
75289;SDS011;63883;48.996;20.804;2023-05-02T10:22:21;3.80;;;2.70;;
75289;SDS011;63883;48.996;20.804;2023-05-02T10:24:48;2.70;;;2.40;;
75289;SDS011;63883;48.996;20.804;2023-05-02T10:27:15;3.15;;;2.58;;
75289;SDS011;63883;48.996;20.804;2023-05-02T10:29:41;2.95;;;2.75;;
75289;SDS011;63883;48.996;20.804;2023-05-02T10:32:07;4.22;;;2.67;;
75289;SDS011;63883;48.996;20.804;2023-05-02T10:34:34;3.55;;;2.85;;
75289;SDS011;63883;48.996;20.804;2023-05-02T10:37:01;3.72;;;2.92;;
75289;SDS011;63883;48.996;20.804;2023-05-02T10:39:30;3.53;;;2.70;;
75289;SDS011;63883;48.996;20.804;2023-05-02T10:41:57;4.00;;;2.60;;
75289;SDS011;63883;48.996;20.804;2023-05-02T10:44:31;3.38;;;2.67;;
75289;SDS011;63883;48.996;20.804;2023-05-02T10:47:00;2.88;;;2.60;;
75289;SDS011;63883;48.996;20.804;2023-05-02T10:49:48;3.03;;;2.50;;
75289;SDS011;63883;48.996;20.804;2023-05-02T10:52:33;3.03;;;2.72;;
75289;SDS011;63883;48.996;20.804;2023-05-02T10:55:20;3.30;;;2.67;;
75289;SDS011;63883;48.996;20.804;2023-05-02T11:00:29;5.22;;;2.83;;
75289;SDS011;63883;48.996;20.804;2023-05-02T11:02:57;2.63;;;2.42;;
75289;SDS011;63883;48.996;20.804;2023-05-02T11:05:22;2.90;;;2.60;;
75289;SDS011;63883;48.996;20.804;2023-05-02T11:07:49;2.75;;;2.30;;
75289;SDS011;63883;48.996;20.804;2023-05-02T11:10:41;3.58;;;2.40;;
75289;SDS011;63883;48.996;20.804;2023-05-02T11:13:07;4.15;;;2.60;;
75289;SDS011;63883;48.996;20.804;2023-05-02T11:18:06;2.58;;;2.38;;
75289;SDS011;63883;48.996;20.804;2023-05-02T11:20:36;4.35;;;2.42;;
75289;SDS011;63883;48.996;20.804;2023-05-02T11:25:55;2.65;;;2.45;;
75289;SDS011;63883;48.996;20.804;2023-05-02T11:28:45;2.55;;;2.35;;
75289;SDS011;63883;48.996;20.804;2023-05-02T11:33:57;2.47;;;2.28;;
75289;SDS011;63883;48.996;20.804;2023-05-02T11:36:33;2.80;;;2.40;;
75289;SDS011;63883;48.996;20.804;2023-05-02T11:39:03;3.20;;;2.60;;
75289;SDS011;63883;48.996;20.804;2023-05-02T11:41:42;2.80;;;2.30;;
75289;SDS011;63883;48.996;20.804;2023-05-02T11:44:08;2.65;;;2.45;;
75289;SDS011;63883;48.996;20.804;2023-05-02T11:46:37;3.83;;;2.30;;
75289;SDS011;63883;48.996;20.804;2023-05-02T11:49:05;2.97;;;2.58;;
75289;SDS011;63883;48.996;20.804;2023-05-02T11:51:32;4.15;;;2.55;;
75289;SDS011;63883;48.996;20.804;2023-05-02T11:53:58;3.40;;;2.65;;
75289;SDS011;63883;48.996;20.804;2023-05-02T11:56:24;3.25;;;2.50;;
75289;SDS011;63883;48.996;20.804;2023-05-02T11:58:57;2.70;;;2.42;;
75289;SDS011;63883;48.996;20.804;2023-05-02T12:01:24;2.72;;;2.50;;
75289;SDS011;63883;48.996;20.804;2023-05-02T12:03:50;4.25;;;2.50;;
75289;SDS011;63883;48.996;20.804;2023-05-02T12:06:29;2.85;;;2.58;;
75289;SDS011;63883;48.996;20.804;2023-05-02T12:09:08;4.00;;;2.42;;
75289;SDS011;63883;48.996;20.804;2023-05-02T12:11:38;2.72;;;2.38;;
75289;SDS011;63883;48.996;20.804;2023-05-02T12:14:04;2.85;;;2.63;;
75289;SDS011;63883;48.996;20.804;2023-05-02T12:16:31;3.75;;;2.50;;
75289;SDS011;63883;48.996;20.804;2023-05-02T12:18:57;4.30;;;2.50;;
75289;SDS011;63883;48.996;20.804;2023-05-02T12:21:24;3.95;;;2.55;;
75289;SDS011;63883;48.996;20.804;2023-05-02T12:23:51;4.10;;;2.47;;
75289;SDS011;63883;48.996;20.804;2023-05-02T12:26:18;2.78;;;2.45;;
75289;SDS011;63883;48.996;20.804;2023-05-02T12:28:56;3.10;;;2.45;;
75289;SDS011;63883;48.996;20.804;2023-05-02T12:31:26;3.30;;;2.70;;
75289;SDS011;63883;48.996;20.804;2023-05-02T12:33:55;2.95;;;2.55;;
75289;SDS011;63883;48.996;20.804;2023-05-02T12:36:22;3.72;;;2.83;;
75289;SDS011;63883;48.996;20.804;2023-05-02T12:38:51;3.60;;;2.50;;
75289;SDS011;63883;48.996;20.804;2023-05-02T12:41:28;3.70;;;2.60;;
75289;SDS011;63883;48.996;20.804;2023-05-02T12:43:55;2.95;;;2.60;;
75289;SDS011;63883;48.996;20.804;2023-05-02T12:46:22;2.92;;;2.70;;
75289;SDS011;63883;48.996;20.804;2023-05-02T12:49:00;5.05;;;2.50;;
75289;SDS011;63883;48.996;20.804;2023-05-02T12:51:33;3.05;;;2.60;;
75289;SDS011;63883;48.996;20.804;2023-05-02T12:54:01;3.75;;;2.70;;
75289;SDS011;63883;48.996;20.804;2023-05-02T12:56:27;3.15;;;2.60;;
75289;SDS011;63883;48.996;20.804;2023-05-02T12:58:56;4.10;;;2.53;;
75289;SDS011;63883;48.996;20.804;2023-05-02T13:01:25;5.95;;;2.80;;
75289;SDS011;63883;48.996;20.804;2023-05-02T13:03:51;2.72;;;2.53;;
75289;SDS011;63883;48.996;20.804;2023-05-02T13:06:17;2.80;;;2.60;;
75289;SDS011;63883;48.996;20.804;2023-05-02T13:08:43;2.53;;;2.33;;
75289;SDS011;63883;48.996;20.804;2023-05-02T13:11:08;6.50;;;2.55;;
75289;SDS011;63883;48.996;20.804;2023-05-02T13:13:34;2.85;;;2.65;;
75289;SDS011;63883;48.996;20.804;2023-05-02T13:16:00;4.35;;;2.60;;
75289;SDS011;63883;48.996;20.804;2023-05-02T13:18:26;6.35;;;2.90;;
75289;SDS011;63883;48.996;20.804;2023-05-02T13:20:52;3.25;;;2.70;;
75289;SDS011;63883;48.996;20.804;2023-05-02T13:23:18;3.55;;;2.40;;
75289;SDS011;63883;48.996;20.804;2023-05-02T13:25:44;2.63;;;2.42;;
75289;SDS011;63883;48.996;20.804;2023-05-02T13:28:10;2.83;;;2.40;;
75289;SDS011;63883;48.996;20.804;2023-05-02T13:30:35;3.72;;;2.55;;
75289;SDS011;63883;48.996;20.804;2023-05-02T13:33:01;3.50;;;2.60;;
75289;SDS011;63883;48.996;20.804;2023-05-02T13:35:27;3.20;;;2.70;;
75289;SDS011;63883;48.996;20.804;2023-05-02T13:37:53;2.80;;;2.50;;
75289;SDS011;63883;48.996;20.804;2023-05-02T13:40:18;3.92;;;2.55;;
75289;SDS011;63883;48.996;20.804;2023-05-02T13:42:45;2.80;;;2.47;;
75289;SDS011;63883;48.996;20.804;2023-05-02T13:45:10;2.80;;;2.58;;
75289;SDS011;63883;48.996;20.804;2023-05-02T13:47:36;4.93;;;2.75;;
75289;SDS011;63883;48.996;20.804;2023-05-02T13:50:02;2.35;;;2.20;;
75289;SDS011;63883;48.996;20.804;2023-05-02T13:52:28;4.03;;;2.53;;
75289;SDS011;63883;48.996;20.804;2023-05-02T13:54:54;2.97;;;2.60;;
75289;SDS011;63883;48.996;20.804;2023-05-02T13:57:19;3.10;;;2.60;;
75289;SDS011;63883;48.996;20.804;2023-05-02T13:59:45;4.93;;;2.42;;
75289;SDS011;63883;48.996;20.804;2023-05-02T14:02:11;3.63;;;2.67;;
75289;SDS011;63883;48.996;20.804;2023-05-02T14:04:37;4.00;;;2.55;;
75289;SDS011;63883;48.996;20.804;2023-05-02T14:07:03;3.20;;;2.90;;
75289;SDS011;63883;48.996;20.804;2023-05-02T14:09:29;3.67;;;2.70;;
75289;SDS011;63883;48.996;20.804;2023-05-02T14:11:55;3.67;;;2.70;;
75289;SDS011;63883;48.996;20.804;2023-05-02T14:14:23;2.83;;;2.63;;
75289;SDS011;63883;48.996;20.804;2023-05-02T14:16:48;3.30;;;2.70;;
75289;SDS011;63883;48.996;20.804;2023-05-02T14:19:14;4.97;;;2.72;;
75289;SDS011;63883;48.996;20.804;2023-05-02T14:21:40;3.13;;;2.75;;
75289;SDS011;63883;48.996;20.804;2023-05-02T14:24:06;2.90;;;2.63;;
75289;SDS011;63883;48.996;20.804;2023-05-02T14:26:32;3.15;;;2.50;;
75289;SDS011;63883;48.996;20.804;2023-05-02T14:28:58;2.85;;;2.60;;
75289;SDS011;63883;48.996;20.804;2023-05-02T14:31:25;3.00;;;2.70;;
75289;SDS011;63883;48.996;20.804;2023-05-02T14:33:51;2.70;;;2.50;;
75289;SDS011;63883;48.996;20.804;2023-05-02T14:36:16;2.85;;;2.63;;
75289;SDS011;63883;48.996;20.804;2023-05-02T14:38:42;4.28;;;3.08;;
75289;SDS011;63883;48.996;20.804;2023-05-02T14:41:08;2.90;;;2.53;;
75289;SDS011;63883;48.996;20.804;2023-05-02T14:43:34;2.63;;;2.42;;
75289;SDS011;63883;48.996;20.804;2023-05-02T14:46:00;2.80;;;2.53;;
75289;SDS011;63883;48.996;20.804;2023-05-02T14:48:26;3.00;;;2.47;;
75289;SDS011;63883;48.996;20.804;2023-05-02T14:50:52;2.60;;;2.40;;
75289;SDS011;63883;48.996;20.804;2023-05-02T14:53:19;3.30;;;2.58;;
75289;SDS011;63883;48.996;20.804;2023-05-02T14:55:45;2.90;;;2.60;;
75289;SDS011;63883;48.996;20.804;2023-05-02T14:58:10;3.10;;;2.80;;
75289;SDS011;63883;48.996;20.804;2023-05-02T15:00:37;5.13;;;2.40;;
75289;SDS011;63883;48.996;20.804;2023-05-02T15:03:05;5.68;;;2.55;;
75289;SDS011;63883;48.996;20.804;2023-05-02T15:05:32;3.08;;;2.45;;
75289;SDS011;63883;48.996;20.804;2023-05-02T15:07:58;3.08;;;2.45;;
75289;SDS011;63883;48.996;20.804;2023-05-02T15:10:24;3.10;;;2.53;;
75289;SDS011;63883;48.996;20.804;2023-05-02T15:12:49;5.25;;;3.20;;
75289;SDS011;63883;48.996;20.804;2023-05-02T15:15:16;3.03;;;2.70;;
75289;SDS011;63883;48.996;20.804;2023-05-02T15:17:42;3.33;;;2.80;;